Time;durP1;ratioP1;P1;durP2;ratioP2;P2;SDS_P1;SDS_P2;PMS_P1;PMS_P2;Temp;Humidity;BMP_temperature;BMP_pressure;BME280_temperature;BME280_humidity;BME280_pressure;Samples;Min_cycle;Max_cycle;Signal;HPM_P1;HPM_P2
2022/05/03 00:00:45;;;;;;;21.38;7.43;;;17.70;65.00;;;;;;5062356;28;20040;-63
2022/05/03 00:03:50;;;;;;;16.98;8.05;;;17.60;65.00;;;;;;5053096;28;20115;-65
2022/05/03 00:06:32;;;;;;;21.20;9.18;;;17.60;65.10;;;;;;5084424;28;20040;-64
2022/05/03 00:09:05;;;;;;;18.30;8.23;;;17.60;65.10;;;;;;5061156;28;20471;-64
2022/05/03 00:11:40;;;;;;;22.55;8.85;;;17.50;65.00;;;;;;5065110;28;20455;-62
2022/05/03 00:14:31;;;;;;;16.75;8.43;;;17.40;65.00;;;;;;5064665;28;20043;-63
2022/05/03 00:16:57;;;;;;;16.95;8.10;;;17.50;65.20;;;;;;5088041;28;20118;-64
2022/05/03 00:19:22;;;;;;;21.23;8.80;;;17.40;65.30;;;;;;5060577;28;20047;-65
2022/05/03 00:21:48;;;;;;;16.33;7.78;;;17.40;65.40;;;;;;5077020;28;20068;-64
2022/05/03 00:24:13;;;;;;;19.88;7.65;;;17.40;65.40;;;;;;5051702;28;20027;-65
2022/05/03 00:26:39;;;;;;;22.70;8.30;;;17.40;65.50;;;;;;5065063;28;20035;-63
2022/05/03 00:29:04;;;;;;;18.63;8.32;;;17.30;65.60;;;;;;5088520;28;20040;-65
2022/05/03 00:31:30;;;;;;;17.08;8.05;;;17.30;65.50;;;;;;5054443;28;20138;-65
2022/05/03 00:33:57;;;;;;;25.15;7.72;;;17.30;65.50;;;;;;5072783;28;20139;-65
2022/05/03 00:36:22;;;;;;;17.35;8.10;;;17.30;65.60;;;;;;5070459;28;20061;-63
2022/05/03 00:38:48;;;;;;;12.02;7.47;;;17.40;65.70;;;;;;5067103;28;20348;-64
2022/05/03 00:41:35;;;;;;;14.25;7.55;;;17.30;65.70;;;;;;5069329;28;20059;-65
2022/05/03 00:47:08;;;;;;;18.20;7.57;;;17.30;65.90;;;;;;5088165;28;20105;-63
2022/05/03 00:49:51;;;;;;;14.27;6.75;;;17.20;66.00;;;;;;5071921;28;20124;-63
2022/05/03 00:52:25;;;;;;;13.02;7.20;;;17.20;66.00;;;;;;5092758;28;20035;-63
2022/05/03 00:55:01;;;;;;;15.43;6.95;;;17.20;65.90;;;;;;5056996;28;20036;-66
2022/05/03 00:57:50;;;;;;;11.27;6.70;;;17.20;66.10;;;;;;5068348;28;20433;-66
2022/05/03 01:00:15;;;;;;;13.07;7.15;;;17.20;66.10;;;;;;5067878;28;20108;-65
2022/05/03 01:03:07;;;;;;;13.43;8.23;;;17.10;66.10;;;;;;5060387;28;20125;-64
2022/05/03 01:05:53;;;;;;;15.60;8.23;;;17.10;66.20;;;;;;5090933;28;20040;-65
2022/05/03 01:08:35;;;;;;;12.90;7.28;;;17.10;66.40;;;;;;5081508;28;20118;-64
2022/05/03 01:11:34;;;;;;;12.77;7.60;;;17.00;66.30;;;;;;5060668;28;20524;-64
2022/05/03 01:14:11;;;;;;;14.77;7.38;;;17.00;66.30;;;;;;5073615;28;20041;-67
2022/05/03 01:16:58;;;;;;;12.85;7.30;;;17.00;66.40;;;;;;5067418;28;20127;-63
2022/05/03 01:19:48;;;;;;;11.68;7.07;;;17.00;66.50;;;;;;5081044;28;20071;-64
2022/05/03 01:22:25;;;;;;;10.63;7.10;;;17.00;66.60;;;;;;5083559;28;20023;-62
2022/05/03 01:25:04;;;;;;;16.42;7.38;;;16.90;66.70;;;;;;5078473;28;20048;-62
2022/05/03 01:27:51;;;;;;;12.10;7.10;;;16.90;66.70;;;;;;5068773;28;20051;-63
2022/05/03 01:30:17;;;;;;;11.95;7.10;;;16.90;66.90;;;;;;5069899;28;20043;-64
2022/05/03 01:32:44;;;;;;;11.77;7.40;;;16.90;67.00;;;;;;5047925;28;20089;-64
2022/05/03 01:35:09;;;;;;;18.85;7.20;;;16.90;67.10;;;;;;5053745;28;20124;-64
2022/05/03 01:37:43;;;;;;;10.45;7.25;;;16.90;67.10;;;;;;5043933;28;20067;-63
2022/05/03 01:40:16;;;;;;;15.05;7.18;;;16.90;67.20;;;;;;5065273;28;20067;-62
2022/05/03 01:42:42;;;;;;;10.63;7.20;;;16.80;67.30;;;;;;5068657;28;20530;-64
2022/05/03 01:45:08;;;;;;;13.00;6.93;;;16.80;67.40;;;;;;5063045;28;20024;-63
2022/05/03 01:48:11;;;;;;;14.50;7.53;;;16.80;67.50;;;;;;5054781;28;20026;-64
2022/05/03 01:50:40;;;;;;;11.23;7.57;;;16.80;67.60;;;;;;5081208;28;20182;-63
2022/05/03 01:53:35;;;;;;;14.02;7.20;;;16.80;67.60;;;;;;5080898;28;20047;-63
2022/05/03 01:56:29;;;;;;;15.45;8.13;;;17.00;67.90;;;;;;5063431;28;20032;-65
2022/05/03 01:59:07;;;;;;;12.70;6.95;;;16.70;67.80;;;;;;5073003;28;20443;-63
2022/05/03 02:01:54;;;;;;;14.00;7.90;;;16.70;67.90;;;;;;5062355;28;20052;-64
2022/05/03 02:04:38;;;;;;;;;;;16.70;68.00;;;;;;5064551;28;20036;-64
2022/05/03 02:07:07;;;;;;;10.32;7.00;;;16.60;68.10;;;;;;5079883;28;19969;-63
2022/05/03 02:09:45;;;;;;;10.07;7.30;;;16.60;68.10;;;;;;5081909;28;20031;-65
2022/05/03 02:12:14;;;;;;;12.27;7.00;;;16.60;68.10;;;;;;5068120;28;20036;-65
2022/05/03 02:15:04;;;;;;;10.40;6.72;;;16.60;68.20;;;;;;5062121;28;20613;-64
2022/05/03 02:17:52;;;;;;;9.18;6.57;;;16.60;68.40;;;;;;5045531;28;20046;-62
2022/05/03 02:20:28;;;;;;;9.32;6.40;;;16.60;68.40;;;;;;5078945;28;20025;-63
2022/05/03 02:22:59;;;;;;;10.18;6.85;;;16.60;68.50;;;;;;5082725;28;20357;-62
2022/05/03 02:25:35;;;;;;;10.20;6.38;;;16.50;68.50;;;;;;5075692;28;20112;-63
2022/05/03 02:28:27;;;;;;;8.57;6.18;;;16.60;68.60;;;;;;5067027;28;20081;-65
2022/05/03 02:30:52;;;;;;;12.93;7.10;;;16.50;68.50;;;;;;5062883;28;20113;-63
2022/05/03 02:33:28;;;;;;;11.57;7.85;;;16.50;68.70;;;;;;5059615;28;20071;-64
2022/05/03 02:35:57;;;;;;;9.60;7.72;;;16.50;68.80;;;;;;5064092;28;20055;-63
2022/05/03 02:38:46;;;;;;;10.95;7.10;;;16.50;69.50;;;;;;5067116;28;20020;-65
2022/05/03 02:41:12;;;;;;;8.60;6.93;;;16.50;68.80;;;;;;5063908;28;20017;-64
2022/05/03 02:43:38;;;;;;;8.48;7.00;;;16.40;68.80;;;;;;5047924;28;20317;-65
2022/05/03 02:46:40;;;;;;;12.05;6.53;;;16.40;69.00;;;;;;5063980;28;20060;-63
2022/05/03 02:49:12;;;;;;;11.38;6.47;;;16.40;69.10;;;;;;5076379;28;20113;-64
2022/05/03 02:51:47;;;;;;;7.93;6.55;;;16.30;69.20;;;;;;5047650;28;20427;-64
2022/05/03 02:54:30;;;;;;;12.00;6.80;;;16.40;69.30;;;;;;5062529;28;20474;-63
2022/05/03 02:57:24;;;;;;;9.52;6.38;;;16.30;69.40;;;;;;5066065;28;20032;-64
2022/05/03 03:03:05;;;;;;;10.32;6.68;;;16.30;69.50;;;;;;5080936;28;20084;-64
2022/05/03 03:05:31;;;;;;;8.88;6.22;;;16.30;69.60;;;;;;5081937;28;20585;-65
2022/05/03 03:08:03;;;;;;;10.00;6.40;;;16.20;69.60;;;;;;5068158;28;20025;-63
2022/05/03 03:10:54;;;;;;;10.85;6.45;;;16.20;69.70;;;;;;5062368;28;20101;-65
2022/05/03 03:13:20;;;;;;;9.48;7.00;;;16.20;69.70;;;;;;5076613;28;20488;-63
2022/05/03 03:15:46;;;;;;;10.27;6.40;;;16.20;69.80;;;;;;5068941;28;20062;-65
2022/05/03 03:18:13;;;;;;;13.93;6.38;;;16.20;69.80;;;;;;5039437;28;20383;-63
2022/05/03 03:20:43;;;;;;;7.13;6.03;;;16.20;69.80;;;;;;5080074;28;20484;-62
2022/05/03 03:23:09;;;;;;;9.90;6.15;;;16.20;69.90;;;;;;5049813;28;20024;-63
2022/05/03 03:25:34;;;;;;;9.85;6.43;;;16.10;69.90;;;;;;5047961;28;20392;-62
2022/05/03 03:28:00;;;;;;;11.93;6.30;;;16.10;70.00;;;;;;5067833;28;20495;-66
2022/05/03 03:30:25;;;;;;;8.23;6.15;;;16.10;70.00;;;;;;5044372;28;20036;-64
2022/05/03 03:32:52;;;;;;;6.35;4.95;;;16.10;70.80;;;;;;5083050;28;20047;-65
2022/05/03 03:35:18;;;;;;;8.30;5.35;;;16.10;70.20;;;;;;5075091;28;20024;-62
2022/05/03 03:37:48;;;;;;;8.50;6.15;;;16.10;70.20;;;;;;5088493;28;20055;-65
2022/05/03 03:40:15;;;;;;;11.07;6.00;;;16.10;70.30;;;;;;5072304;28;20101;-63
2022/05/03 03:42:44;;;;;;;8.70;5.78;;;16.10;70.40;;;;;;5053957;28;20070;-64
2022/05/03 03:45:11;;;;;;;12.55;6.28;;;16.00;70.40;;;;;;5072309;28;20039;-63
2022/05/03 03:47:36;;;;;;;8.13;5.35;;;16.00;70.40;;;;;;5086969;28;20059;-63
2022/05/03 03:50:03;;;;;;;11.07;5.05;;;16.00;70.50;;;;;;5059902;28;20055;-62
2022/05/03 03:52:28;;;;;;;9.20;5.85;;;16.00;70.60;;;;;;5090046;28;20118;-64
2022/05/03 03:54:54;;;;;;;14.45;5.43;;;16.00;70.60;;;;;;5055330;28;20138;-65
2022/05/03 03:57:20;;;;;;;7.05;5.38;;;15.90;70.60;;;;;;5090292;28;20573;-63
2022/05/03 03:59:47;;;;;;;8.00;5.15;;;15.90;70.70;;;;;;5053403;28;20024;-64
2022/05/03 04:02:12;;;;;;;10.20;5.68;;;15.90;70.60;;;;;;5068932;28;20307;-64
2022/05/03 04:04:38;;;;;;;11.20;5.78;;;15.90;70.70;;;;;;5068203;28;20032;-64
2022/05/03 04:07:04;;;;;;;8.73;5.25;;;15.90;70.80;;;;;;5049550;28;20052;-63
2022/05/03 04:09:29;;;;;;;10.43;6.15;;;15.80;70.80;;;;;;5063038;28;20751;-65
2022/05/03 04:11:55;;;;;;;6.32;5.40;;;15.90;70.90;;;;;;5074713;28;20035;-63
2022/05/03 04:14:20;;;;;;;8.43;5.40;;;15.80;70.90;;;;;;5060351;28;20053;-64
2022/05/03 04:16:46;;;;;;;8.23;5.70;;;15.80;70.90;;;;;;5041563;28;20055;-63
2022/05/03 04:19:12;;;;;;;6.43;5.10;;;15.80;70.90;;;;;;5080109;28;20471;-63
2022/05/03 04:21:38;;;;;;;8.52;5.68;;;15.80;70.90;;;;;;5061914;28;20020;-63
2022/05/03 04:24:04;;;;;;;104.93;14.82;;;15.80;70.90;;;;;;5082642;28;20028;-63
2022/05/03 04:26:30;;;;;;;37.53;8.45;;;15.80;71.00;;;;;;5074191;28;20034;-62
2022/05/03 04:28:59;;;;;;;47.00;9.70;;;15.80;71.00;;;;;;5051133;28;20043;-65
2022/05/03 04:31:26;;;;;;;53.20;9.43;;;15.70;70.90;;;;;;5068564;28;20063;-65
2022/05/03 04:33:52;;;;;;;33.55;8.85;;;15.80;71.00;;;;;;5069256;28;20020;-65
2022/05/03 04:36:17;;;;;;;30.95;7.25;;;15.80;71.00;;;;;;5078582;28;20039;-64
2022/05/03 04:38:43;;;;;;;35.67;8.80;;;15.70;71.00;;;;;;5080605;28;20619;-63
2022/05/03 04:41:08;;;;;;;30.13;7.57;;;15.70;71.10;;;;;;5081947;28;20141;-62
2022/05/03 04:43:34;;;;;;;29.98;6.93;;;15.70;71.10;;;;;;5084923;28;20028;-65
2022/05/03 04:46:00;;;;;;;33.67;7.93;;;15.70;71.20;;;;;;5083574;28;20020;-62
2022/05/03 04:48:25;;;;;;;30.23;7.90;;;15.70;71.20;;;;;;5070520;28;20093;-65
2022/05/03 04:50:51;;;;;;;26.58;7.75;;;15.70;71.20;;;;;;5051739;28;20468;-63
2022/05/03 04:53:16;;;;;;;24.58;7.60;;;15.70;71.20;;;;;;5084624;28;20031;-64
2022/05/03 04:55:42;;;;;;;30.95;7.38;;;15.70;71.20;;;;;;5084072;28;20491;-63
2022/05/03 04:58:08;;;;;;;32.78;6.88;;;15.60;71.20;;;;;;5065729;28;20489;-62
2022/05/03 05:00:33;;;;;;;21.58;7.03;;;15.60;71.40;;;;;;5066053;28;20033;-63
2022/05/03 05:02:59;;;;;;;23.30;6.95;;;15.60;71.30;;;;;;5052846;28;20044;-62
2022/05/03 05:05:24;;;;;;;22.75;6.50;;;15.60;71.20;;;;;;5065802;28;20013;-65
2022/05/03 05:07:50;;;;;;;24.55;6.75;;;15.60;71.30;;;;;;5070989;28;20352;-62
2022/05/03 05:10:24;;;;;;;20.73;7.35;;;15.60;71.40;;;;;;5066546;28;20365;-65
2022/05/03 05:12:50;;;;;;;19.38;7.30;;;15.60;71.40;;;;;;5069365;28;20036;-65
2022/05/03 05:15:16;;;;;;;23.25;6.28;;;15.60;71.40;;;;;;5067106;28;20046;-65
2022/05/03 05:17:42;;;;;;;19.00;5.72;;;15.60;71.40;;;;;;5070619;28;20027;-62
2022/05/03 05:20:07;;;;;;;24.83;7.07;;;15.60;71.40;;;;;;5066745;28;20024;-64
2022/05/03 05:22:33;;;;;;;14.88;6.30;;;15.60;71.50;;;;;;5053186;28;20047;-62
2022/05/03 05:24:58;;;;;;;22.58;6.97;;;15.50;71.70;;;;;;5049081;28;20525;-64
2022/05/03 05:27:24;;;;;;;19.73;6.80;;;15.50;71.90;;;;;;5085997;28;20162;-63
2022/05/03 05:29:49;;;;;;;19.73;6.68;;;15.60;72.20;;;;;;5066333;28;20032;-61
2022/05/03 05:32:15;;;;;;;17.02;6.65;;;15.50;72.20;;;;;;5088641;28;20028;-65
2022/05/03 05:34:40;;;;;;;18.38;6.63;;;15.50;72.00;;;;;;5082382;28;20945;-65
2022/05/03 05:37:06;;;;;;;17.58;5.85;;;15.50;72.00;;;;;;5064356;28;20367;-64
2022/05/03 05:39:32;;;;;;;13.57;6.60;;;15.50;72.00;;;;;;5048188;28;20313;-63
2022/05/03 05:41:59;;;;;;;31.42;7.22;;;15.50;72.20;;;;;;5086648;28;20490;-62
2022/05/03 05:44:30;;;;;;;16.23;6.60;;;15.60;72.30;;;;;;5032901;28;20054;-63
2022/05/03 05:46:55;;;;;;;13.48;6.10;;;15.50;72.30;;;;;;5064643;28;20020;-63
2022/05/03 05:49:21;;;;;;;14.82;6.38;;;15.50;72.30;;;;;;5061438;28;20448;-64
2022/05/03 05:51:47;;;;;;;16.10;7.07;;;15.50;72.30;;;;;;5043748;28;20078;-63
2022/05/03 05:54:12;;;;;;;18.70;6.93;;;15.50;72.30;;;;;;5072650;28;20102;-62
2022/05/03 05:56:40;;;;;;;14.60;6.43;;;15.50;72.20;;;;;;5068221;28;20086;-65
2022/05/03 05:59:05;;;;;;;14.07;6.13;;;15.60;72.30;;;;;;5033791;28;20081;-62
2022/05/03 06:01:38;;;;;;;16.60;6.78;;;15.60;72.30;;;;;;5086804;28;20052;-62
2022/05/03 06:04:04;;;;;;;27.48;6.65;;;15.60;72.20;;;;;;5047638;28;20023;-62
2022/05/03 06:06:30;;;;;;;14.63;5.95;;;15.80;72.40;;;;;;5052436;28;20035;-65
2022/05/03 06:08:56;;;;;;;11.35;6.03;;;15.60;72.20;;;;;;5066605;28;20402;-64
2022/05/03 06:11:21;;;;;;;10.30;5.95;;;15.60;72.80;;;;;;5085638;28;20028;-62
2022/05/03 06:13:47;;;;;;;14.30;6.65;;;15.60;72.30;;;;;;5068460;28;20043;-64
2022/05/03 06:16:13;;;;;;;14.32;6.38;;;15.60;72.20;;;;;;5074778;28;20465;-64
2022/05/03 06:18:38;;;;;;;11.30;5.82;;;15.60;72.10;;;;;;5059292;28;20040;-64
2022/05/03 06:21:07;;;;;;;15.30;6.28;;;15.60;72.00;;;;;;5066984;28;20198;-63
2022/05/03 06:23:36;;;;;;;15.43;6.47;;;15.60;72.10;;;;;;5049649;28;20020;-64
2022/05/03 06:26:05;;;;;;;16.38;6.28;;;15.60;72.10;;;;;;5046122;28;20027;-63
2022/05/03 06:28:31;;;;;;;11.88;5.68;;;15.60;72.00;;;;;;5048363;28;20139;-63
2022/05/03 06:30:56;;;;;;;12.55;5.75;;;15.70;72.10;;;;;;5050264;28;20481;-63
2022/05/03 06:33:22;;;;;;;16.77;5.68;;;15.60;71.90;;;;;;5065761;28;20021;-65
2022/05/03 06:35:47;;;;;;;16.53;5.73;;;15.70;71.80;;;;;;5049487;28;20500;-63
2022/05/03 06:38:13;;;;;;;12.43;6.18;;;15.70;71.70;;;;;;5081672;28;20043;-62
2022/05/03 06:40:38;;;;;;;12.57;5.72;;;15.70;71.70;;;;;;5067529;28;20032;-63
2022/05/03 06:43:04;;;;;;;17.73;6.32;;;15.70;71.70;;;;;;5083028;28;20032;-63
2022/05/03 06:45:30;;;;;;;15.80;6.20;;;15.70;71.70;;;;;;5061500;28;20028;-64
2022/05/03 06:47:56;;;;;;;14.88;5.93;;;15.80;71.90;;;;;;5083894;28;20040;-64
2022/05/03 06:50:21;;;;;;;14.10;6.20;;;15.70;72.50;;;;;;5077113;28;20100;-64
2022/05/03 06:52:48;;;;;;;22.90;7.03;;;15.80;72.40;;;;;;5079625;28;20488;-64
2022/05/03 06:55:13;;;;;;;27.45;6.90;;;15.80;72.60;;;;;;5075272;28;20432;-62
2022/05/03 06:57:39;;;;;;;21.77;6.85;;;15.80;72.30;;;;;;5081727;28;20028;-63
2022/05/03 07:00:06;;;;;;;122.97;15.88;;;15.80;72.40;;;;;;5064217;28;20040;-64
2022/05/03 07:02:32;;;;;;;31.95;7.68;;;15.90;72.70;;;;;;5048132;28;20326;-63
2022/05/03 07:05:01;;;;;;;31.95;7.57;;;15.90;72.50;;;;;;5064249;28;20028;-63
2022/05/03 07:07:29;;;;;;;122.10;14.10;;;15.80;72.40;;;;;;5056466;28;20065;-65
2022/05/03 07:10:01;;;;;;;73.75;12.32;;;15.90;72.70;;;;;;5055374;28;20612;-63
2022/05/03 07:12:27;;;;;;;114.43;17.08;;;15.90;72.70;;;;;;5090699;28;20028;-63
2022/05/03 07:14:57;;;;;;;100.95;15.65;;;15.90;72.70;;;;;;5065659;28;20036;-62
2022/05/03 07:22:51;;;;;;;87.85;13.05;;;15.90;72.50;;;;;;5055917;28;20063;-64
2022/05/03 07:25:17;;;;;;;60.63;9.13;;;16.00;72.60;;;;;;5084162;28;20495;-64
2022/05/03 07:27:46;;;;;;;56.00;9.75;;;16.00;72.70;;;;;;5084999;28;20369;-62
2022/05/03 07:30:13;;;;;;;61.65;10.15;;;16.00;73.90;;;;;;5068535;28;20028;-64
2022/05/03 07:32:39;;;;;;;70.13;10.50;;;16.00;73.20;;;;;;5071486;28;20095;-64
2022/05/03 07:35:04;;;;;;;79.50;12.30;;;16.00;72.70;;;;;;5046855;28;20519;-66
2022/05/03 07:37:30;;;;;;;67.53;10.95;;;16.10;73.30;;;;;;5028789;28;20059;-64
2022/05/03 07:39:55;;;;;;;71.80;12.60;;;16.10;72.80;;;;;;5069468;28;20424;-64
2022/05/03 07:42:21;;;;;;;87.07;12.88;;;16.10;72.70;;;;;;5085891;28;20067;-62
2022/05/03 07:44:46;;;;;;;90.63;13.27;;;16.10;73.40;;;;;;5055604;28;20115;-63
2022/05/03 07:47:12;;;;;;;89.80;12.32;;;16.10;73.40;;;;;;5078757;28;20036;-63
2022/05/03 07:49:37;;;;;;;69.53;12.23;;;16.10;73.30;;;;;;5087972;28;20049;-63
2022/05/03 07:52:05;;;;;;;85.85;12.70;;;16.10;73.40;;;;;;5078214;28;20039;-62
2022/05/03 07:54:31;;;;;;;70.47;11.93;;;16.20;73.50;;;;;;5088328;28;20032;-63
2022/05/03 07:56:56;;;;;;;70.40;12.30;;;16.20;73.80;;;;;;5075749;28;20036;-61
2022/05/03 07:59:25;;;;;;;257.17;33.47;;;16.20;73.50;;;;;;5062074;28;20110;-63
2022/05/03 08:01:51;;;;;;;174.60;19.42;;;16.20;73.70;;;;;;5082154;28;20441;-61
2022/05/03 08:04:16;;;;;;;83.63;13.60;;;16.20;73.60;;;;;;5067823;28;20032;-62
2022/05/03 08:06:42;;;;;;;75.57;12.88;;;16.20;73.80;;;;;;5082891;28;20020;-63
2022/05/03 08:09:07;;;;;;;101.78;15.30;;;16.30;73.80;;;;;;5094829;28;20024;-62
2022/05/03 08:11:33;;;;;;;98.75;13.10;;;16.30;74.00;;;;;;5071598;28;20124;-63
2022/05/03 08:13:58;;;;;;;85.47;14.02;;;16.30;74.00;;;;;;5089156;28;20023;-62
2022/05/03 08:16:25;;;;;;;94.22;14.23;;;16.30;73.90;;;;;;5081273;28;20039;-62
2022/05/03 08:18:50;;;;;;;91.10;14.73;;;16.30;74.00;;;;;;5082499;28;20055;-62
2022/05/03 08:21:16;;;;;;;92.13;14.48;;;16.40;74.10;;;;;;5081331;28;20063;-63
2022/05/03 08:23:41;;;;;;;83.95;14.05;;;16.40;74.00;;;;;;5059937;28;20166;-63
2022/05/03 08:26:07;;;;;;;97.75;15.32;;;16.40;74.30;;;;;;5057346;28;20233;-62
2022/05/03 08:28:33;;;;;;;96.03;15.43;;;16.40;74.50;;;;;;5061703;28;20024;-62
2022/05/03 08:30:59;;;;;;;150.82;18.55;;;16.50;74.20;;;;;;5040734;28;20440;-63
2022/05/03 08:33:25;;;;;;;105.85;16.08;;;16.50;73.70;;;;;;5073795;28;20555;-64
2022/05/03 08:35:51;;;;;;;141.90;17.85;;;16.50;73.00;;;;;;5043479;28;20044;-62
2022/05/03 08:43:46;;;;;;;136.35;18.17;;;16.60;73.00;;;;;;5040272;28;20054;-63
2022/05/03 08:46:12;;;;;;;146.50;18.73;;;16.70;73.00;;;;;;5060567;28;20040;-63
2022/05/03 08:48:41;;;;;;;261.08;29.77;;;16.70;73.00;;;;;;5062561;28;20131;-62
2022/05/03 08:51:07;;;;;;;147.57;20.25;;;16.70;72.90;;;;;;5032405;28;20039;-61
2022/05/03 08:53:33;;;;;;;147.48;19.60;;;16.80;73.00;;;;;;5051460;28;20020;-64
2022/05/03 08:55:59;;;;;;;120.40;18.52;;;16.80;72.60;;;;;;5082866;28;20030;-62
2022/05/03 08:58:24;;;;;;;126.43;18.58;;;16.80;72.60;;;;;;5057412;28;20086;-61
2022/05/03 09:00:50;;;;;;;141.77;18.42;;;16.80;72.70;;;;;;5061077;28;20158;-62
2022/05/03 09:03:16;;;;;;;131.85;19.42;;;16.90;72.80;;;;;;5061903;28;20042;-63
2022/05/03 09:05:41;;;;;;;133.80;20.27;;;16.90;72.80;;;;;;5048648;28;20379;-62
2022/05/03 09:08:08;;;;;;;171.23;22.58;;;16.90;72.90;;;;;;5079006;28;20117;-64
2022/05/03 09:10:34;;;;;;;148.25;21.15;;;16.90;72.80;;;;;;5042972;28;20028;-63
2022/05/03 09:13:17;;;;;;;140.10;20.52;;;17.00;72.90;;;;;;5079517;28;20023;-64
2022/05/03 09:15:42;;;;;;;144.80;20.50;;;17.00;72.80;;;;;;5060690;28;20016;-63
2022/05/03 09:18:08;;;;;;;142.43;20.17;;;17.00;72.60;;;;;;5058586;28;20040;-63
2022/05/03 09:26:12;;;;;;;142.30;20.77;;;17.10;72.50;;;;;;5080937;28;20103;-63
2022/05/03 09:29:03;;;;;;;138.68;19.83;;;17.20;72.70;;;;;;5062901;28;20637;-61
2022/05/03 09:31:32;;;;;;;153.73;19.95;;;17.30;72.60;;;;;;5068598;28;20036;-63
2022/05/03 09:33:59;;;;;;;155.80;22.20;;;17.30;72.50;;;;;;5060289;28;20530;-62
2022/05/03 09:36:25;;;;;;;116.13;18.77;;;17.30;72.60;;;;;;5063647;28;20040;-61
2022/05/03 09:38:53;;;;;;;148.77;20.15;;;17.40;72.60;;;;;;5040666;28;20036;-62
2022/05/03 09:41:19;;;;;;;144.77;20.75;;;17.50;72.30;;;;;;5033978;28;20635;-61
2022/05/03 09:44:04;;;;;;;118.15;18.17;;;17.50;72.10;;;;;;5058949;28;20032;-63
2022/05/03 09:46:30;;;;;;;123.40;19.08;;;17.50;72.10;;;;;;5075803;28;20032;-62
2022/05/03 09:48:56;;;;;;;147.00;21.35;;;17.60;72.10;;;;;;5059917;28;20068;-63
2022/05/03 09:51:24;;;;;;;133.18;19.58;;;17.60;72.30;;;;;;5046526;28;20099;-62
2022/05/03 09:53:57;;;;;;;126.78;18.83;;;17.60;72.30;;;;;;5081150;28;20045;-64
2022/05/03 09:56:27;;;;;;;117.10;17.80;;;17.70;72.40;;;;;;5044963;28;20035;-63
2022/05/03 09:59:00;;;;;;;139.32;19.88;;;17.70;72.10;;;;;;5043087;28;20029;-63
2022/05/03 10:01:25;;;;;;;215.00;27.60;;;17.80;72.30;;;;;;5043019;28;20377;-63
2022/05/03 10:03:51;;;;;;;167.38;24.25;;;17.80;72.80;;;;;;5060306;28;20031;-63
2022/05/03 10:06:20;;;;;;;200.88;26.55;;;17.90;72.70;;;;;;5061801;28;20044;-62
2022/05/03 10:08:48;;;;;;;144.50;20.52;;;17.90;72.70;;;;;;5063205;28;20113;-62
2022/05/03 10:11:16;;;;;;;159.90;20.02;;;18.00;71.90;;;;;;5037569;28;20452;-63
2022/05/03 10:13:41;;;;;;;154.60;22.08;;;18.00;72.10;;;;;;5024556;28;20031;-62
2022/05/03 10:21:37;;;;;;;150.32;22.33;;;18.20;72.00;;;;;;5063811;28;20066;-64
2022/05/03 10:24:06;;;;;;;148.68;19.92;;;18.30;72.40;;;;;;5066289;28;20426;-62
2022/05/03 10:26:54;;;;;;;154.52;23.33;;;18.40;72.30;;;;;;5062410;28;20028;-63
2022/05/03 10:29:21;;;;;;;137.00;21.08;;;18.40;72.40;;;;;;5060797;28;20048;-63
2022/05/03 10:31:56;;;;;;;141.15;21.08;;;18.50;72.50;;;;;;5063968;28;20040;-63
2022/05/03 10:34:40;;;;;;;157.70;20.38;;;18.50;72.00;;;;;;5065649;28;20024;-64
2022/05/03 10:37:26;;;;;;;164.43;25.80;;;18.60;72.10;;;;;;5082992;28;20087;-62
2022/05/03 10:39:56;;;;;;;118.72;20.50;;;18.70;72.20;;;;;;5009668;28;20040;-62
2022/05/03 10:42:23;;;;;;;158.07;20.58;;;18.70;72.40;;;;;;5062763;28;20049;-62
2022/05/03 10:45:10;;;;;;;140.20;20.40;;;18.80;72.10;;;;;;5043892;28;20027;-61
2022/05/03 10:47:54;;;;;;;139.40;21.77;;;18.90;72.30;;;;;;5060350;28;20042;-63
2022/05/03 10:50:38;;;;;;;198.65;23.90;;;18.90;72.20;;;;;;5044742;28;20025;-63
2022/05/03 10:53:07;;;;;;;187.13;24.35;;;19.00;72.30;;;;;;5078240;28;20032;-62
2022/05/03 10:55:35;;;;;;;125.10;19.23;;;19.00;72.50;;;;;;5078227;28;20019;-63
2022/05/03 10:58:26;;;;;;;115.35;18.23;;;19.10;72.00;;;;;;5041951;28;20054;-62
2022/05/03 11:01:14;;;;;;;136.13;19.70;;;19.20;71.20;;;;;;5054706;28;20332;-62
2022/05/03 11:03:41;;;;;;;121.35;20.25;;;19.20;71.20;;;;;;5045294;28;20058;-62
2022/05/03 11:06:17;;;;;;;134.75;20.15;;;19.30;71.00;;;;;;5059219;28;20100;-62
2022/05/03 11:09:02;;;;;;;140.13;20.63;;;19.40;71.20;;;;;;5054991;28;20533;-62
2022/05/03 11:14:06;;;;;;;128.70;22.25;;;19.60;70.40;;;;;;5077260;28;20036;-63
2022/05/03 11:16:37;;;;;;;138.18;22.55;;;19.70;70.20;;;;;;5054644;28;20038;-63
2022/05/03 11:19:09;;;;;;;139.40;20.92;;;19.80;70.00;;;;;;5079177;28;20225;-63
2022/05/03 11:21:34;;;;;;;120.85;21.58;;;19.80;69.70;;;;;;5059079;28;20035;-63
2022/05/03 11:24:00;;;;;;;133.45;21.15;;;19.90;69.50;;;;;;5047387;28;20017;-63
2022/05/03 11:26:26;;;;;;;119.20;19.45;;;20.00;69.30;;;;;;5081594;28;20020;-62
2022/05/03 11:28:52;;;;;;;142.82;20.40;;;20.10;69.10;;;;;;5082532;28;20020;-65
2022/05/03 11:31:20;;;;;;;162.40;22.45;;;20.10;68.80;;;;;;5044149;28;20078;-67
2022/05/03 11:33:49;;;;;;;135.77;21.50;;;20.30;68.80;;;;;;5071606;28;20028;-63
2022/05/03 11:36:15;;;;;;;142.70;22.45;;;20.40;68.40;;;;;;5080345;28;20031;-64
2022/05/03 11:38:40;;;;;;;131.38;20.95;;;20.50;68.30;;;;;;5081649;28;20028;-62
2022/05/03 11:41:07;;;;;;;154.40;20.27;;;20.60;67.80;;;;;;5075862;28;20036;-63
2022/05/03 11:43:33;;;;;;;150.50;19.00;;;20.70;67.50;;;;;;5070467;28;20123;-63
2022/05/03 11:45:59;;;;;;;135.57;21.88;;;20.80;67.20;;;;;;5051559;28;20468;-65
2022/05/03 11:48:24;;;;;;;141.57;19.60;;;20.80;66.90;;;;;;5065926;28;20055;-61
2022/05/03 11:56:26;;;;;;;137.80;21.67;;;21.20;66.30;;;;;;5082153;28;20086;-62
2022/05/03 11:58:51;;;;;;;167.90;23.17;;;21.20;65.90;;;;;;5062599;28;20477;-62
2022/05/03 12:01:17;;;;;;;177.90;25.35;;;21.30;65.50;;;;;;5066062;28;20087;-63
2022/05/03 12:03:56;;;;;;;172.57;23.65;;;21.40;65.40;;;;;;5085842;28;20146;-62
2022/05/03 12:06:21;;;;;;;152.18;19.83;;;21.40;64.60;;;;;;5065592;28;20451;-62
2022/05/03 12:08:48;;;;;;;94.70;16.45;;;21.40;64.50;;;;;;5066310;28;20044;-62
2022/05/03 12:11:21;;;;;;;70.90;11.30;;;21.40;63.30;;;;;;5051858;28;20049;-62
2022/05/03 12:13:47;;;;;;;75.82;12.68;;;21.40;61.30;;;;;;5048453;28;20036;-62
2022/05/03 12:16:15;;;;;;;74.38;12.10;;;21.40;61.40;;;;;;5051448;28;20632;-62
2022/05/03 12:18:49;;;;;;;65.60;11.77;;;21.40;61.30;;;;;;5069911;28;20043;-63
2022/05/03 12:21:14;;;;;;;75.40;12.55;;;21.50;61.30;;;;;;5083748;28;20570;-64
2022/05/03 12:23:57;;;;;;;78.55;10.98;;;21.50;60.90;;;;;;5081496;28;20471;-62
2022/05/03 12:26:44;;;;;;;46.00;9.27;;;21.60;60.10;;;;;;5049310;28;20077;-62
2022/05/03 12:29:10;;;;;;;29.95;7.53;;;21.50;59.50;;;;;;5082058;28;20131;-63
2022/05/03 12:31:37;;;;;;;23.55;6.47;;;21.60;59.20;;;;;;5085948;28;20832;-64
2022/05/03 12:34:04;;;;;;;22.73;5.18;;;21.60;58.80;;;;;;5034526;28;20465;-62
2022/05/03 12:36:44;;;;;;;20.08;4.43;;;21.70;58.50;;;;;;5029667;28;20142;-62
2022/05/03 12:39:13;;;;;;;16.67;4.20;;;21.70;58.50;;;;;;5067685;28;20028;-62
2022/05/03 12:41:39;;;;;;;16.42;4.13;;;21.60;57.60;;;;;;5065356;28;20508;-62
2022/05/03 12:44:12;;;;;;;14.98;4.00;;;21.60;57.80;;;;;;5043455;28;20086;-64
2022/05/03 12:46:38;;;;;;;16.30;3.72;;;21.60;58.00;;;;;;5050542;28;20032;-62
2022/05/03 12:49:11;;;;;;;18.48;4.03;;;21.50;57.70;;;;;;5052542;28;20044;-63
2022/05/03 12:51:38;;;;;;;30.52;4.20;;;21.50;57.60;;;;;;5063615;28;20035;-63
2022/05/03 12:54:04;;;;;;;22.52;4.07;;;21.50;57.30;;;;;;5081004;28;20027;-63
2022/05/03 12:59:14;;;;;;;10.95;3.55;;;21.60;57.50;;;;;;5059951;28;20050;-62
2022/05/03 13:01:40;;;;;;;9.95;3.50;;;21.60;56.50;;;;;;5061177;28;20086;-64
2022/05/03 13:04:06;;;;;;;8.43;3.10;;;21.60;56.70;;;;;;5084406;28;20400;-63
2022/05/03 13:06:31;;;;;;;8.95;3.17;;;21.50;56.60;;;;;;5080603;28;20078;-62
2022/05/03 13:08:57;;;;;;;6.97;3.08;;;21.60;56.70;;;;;;5076575;28;20043;-62
2022/05/03 13:11:23;;;;;;;10.63;3.20;;;21.60;56.70;;;;;;5065505;28;20028;-62
2022/05/03 13:13:49;;;;;;;14.85;3.60;;;21.50;56.60;;;;;;5045287;28;20100;-61
2022/05/03 13:16:14;;;;;;;14.65;3.30;;;21.50;56.50;;;;;;5073295;28;20073;-66
2022/05/03 13:18:40;;;;;;;24.17;4.82;;;21.50;56.40;;;;;;5064572;28;20036;-63
2022/05/03 13:21:06;;;;;;;20.27;4.07;;;21.50;56.10;;;;;;5072705;28;20497;-63
2022/05/03 13:23:31;;;;;;;28.23;3.95;;;21.50;55.90;;;;;;5083737;28;20040;-63